createdAt,value
2017-12-27T00:00:56.477Z,4.04
2017-12-27T00:02:05.301Z,4.11
2017-12-27T00:03:14.122Z,4.05
2017-12-27T00:04:22.953Z,4.04
2017-12-27T00:05:32.052Z,4.05
2017-12-27T00:06:41.171Z,4.06
2017-12-27T00:07:49.995Z,4.02
2017-12-27T00:08:58.821Z,4.11
2017-12-27T00:10:07.649Z,4.08
2017-12-27T00:11:16.472Z,4.14
2017-12-27T00:12:25.347Z,4.11
2017-12-27T00:13:34.172Z,4.16
2017-12-27T00:14:42.996Z,4.16
2017-12-27T00:15:51.821Z,4.09
2017-12-27T00:17:01.191Z,4.14
2017-12-27T00:18:10.115Z,4.09
2017-12-27T00:19:18.940Z,4.05
2017-12-27T00:20:27.765Z,4.08
2017-12-27T00:21:36.590Z,4.18
2017-12-27T00:22:45.414Z,4.11
2017-12-27T00:23:54.240Z,4.15
2017-12-27T00:25:03.340Z,4.16
2017-12-27T00:26:12.165Z,4.14
2017-12-27T00:27:20.996Z,4.12
2017-12-27T00:28:29.817Z,4.12
2017-12-27T00:29:38.643Z,4.12
2017-12-27T00:30:47.470Z,4.22
2017-12-27T00:31:56.296Z,4.18
2017-12-27T00:33:05.120Z,4.24
2017-12-27T00:34:13.943Z,4.22
2017-12-27T00:35:22.765Z,4.24
2017-12-27T00:36:31.591Z,4.14
2017-12-27T00:37:40.414Z,4.24
2017-12-27T00:38:49.240Z,4.11
2017-12-27T00:39:58.063Z,4.2
2017-12-27T00:41:07.188Z,4.12
2017-12-27T00:42:16.020Z,4.14
2017-12-27T00:43:24.842Z,4.24
2017-12-27T00:44:33.941Z,4.15
2017-12-27T00:45:42.762Z,4.14
2017-12-27T00:46:51.586Z,4.23
2017-12-27T00:48:00.410Z,4.15
2017-12-27T00:49:09.515Z,4.18
2017-12-27T00:50:18.340Z,4.12
2017-12-27T00:51:27.166Z,4.15
2017-12-27T00:52:36.089Z,4.14
2017-12-27T00:53:44.913Z,4.18
2017-12-27T00:54:53.739Z,4.14
2017-12-27T00:56:02.563Z,4.12
2017-12-27T00:57:11.386Z,4.24
2017-12-27T00:58:20.638Z,4.29
2017-12-27T00:59:29.461Z,4.32
2017-12-27T01:00:38.287Z,4.29
2017-12-27T01:01:47.111Z,4.22
2017-12-27T01:02:55.939Z,4.3
2017-12-27T01:04:05.337Z,4.26
2017-12-27T01:05:14.166Z,4.24
2017-12-27T01:06:22.991Z,4.26
2017-12-27T01:07:31.818Z,4.32
2017-12-27T01:08:40.647Z,4.3
2017-12-27T01:09:49.892Z,4.34
2017-12-27T01:10:58.717Z,4.36
2017-12-27T01:12:07.822Z,4.33
2017-12-27T01:13:16.646Z,4.33
2017-12-27T01:14:25.471Z,4.36
2017-12-27T01:15:34.396Z,4.4
2017-12-27T01:16:43.221Z,4.32
2017-12-27T01:17:52.317Z,4.34
2017-12-27T01:19:01.142Z,4.41
2017-12-27T01:20:09.967Z,4.29
2017-12-27T01:21:18.893Z,4.29
2017-12-27T01:22:27.717Z,4.34
2017-12-27T01:23:36.547Z,4.34
2017-12-27T01:24:45.371Z,4.26
2017-12-27T01:25:54.193Z,4.26
2017-12-27T01:27:03.319Z,4.45
2017-12-27T01:28:12.144Z,4.42
2017-12-27T01:29:20.969Z,4.44
2017-12-27T01:30:29.795Z,4.3
2017-12-27T01:31:38.619Z,4.4
2017-12-27T01:32:47.544Z,4.37
2017-12-27T01:33:56.368Z,4.41
2017-12-27T01:35:05.192Z,4.42
2017-12-27T01:36:14.015Z,4.47
2017-12-27T01:37:22.840Z,4.37
2017-12-27T01:38:31.664Z,4.41
2017-12-27T01:39:40.489Z,4.47
2017-12-27T01:40:49.585Z,4.45
2017-12-27T01:41:58.412Z,4.47
2017-12-27T01:43:07.236Z,4.42
2017-12-27T01:44:16.112Z,4.54
2017-12-27T01:45:24.937Z,4.5
2017-12-27T01:46:34.039Z,4.55
2017-12-27T01:47:42.870Z,4.51
2017-12-27T01:48:51.694Z,4.54
2017-12-27T01:50:00.520Z,4.52
2017-12-27T01:51:09.341Z,4.6
2017-12-27T01:52:18.164Z,4.55
2017-12-27T01:53:26.988Z,4.51
2017-12-27T01:54:35.965Z,4.58
2017-12-27T01:55:44.988Z,4.58
2017-12-27T01:56:53.813Z,4.5
2017-12-27T01:58:02.639Z,4.59
2017-12-27T01:59:11.463Z,4.65
2017-12-27T02:00:20.289Z,4.6
2017-12-27T02:01:29.537Z,4.65
2017-12-27T02:02:38.362Z,4.63
2017-12-27T02:03:47.186Z,4.67
2017-12-27T02:04:56.011Z,4.67
2017-12-27T02:06:04.835Z,4.66
2017-12-27T02:07:13.661Z,4.66
2017-12-27T02:08:22.486Z,4.67
2017-12-27T02:09:31.587Z,4.55
2017-12-27T02:10:40.411Z,4.6
2017-12-27T02:11:49.238Z,4.63
2017-12-27T02:12:58.062Z,4.59
2017-12-27T02:14:06.894Z,4.65
2017-12-27T02:15:15.717Z,4.67
2017-12-27T02:16:24.544Z,4.66
2017-12-27T02:17:33.372Z,4.66
2017-12-27T02:18:42.445Z,4.59
2017-12-27T02:19:51.270Z,4.67
2017-12-27T02:21:00.096Z,4.7
2017-12-27T02:22:08.926Z,4.72
2017-12-27T02:23:18.023Z,4.72
2017-12-27T02:24:26.850Z,4.66
2017-12-27T02:25:35.676Z,4.66
2017-12-27T02:26:44.502Z,4.63
2017-12-27T02:27:53.325Z,4.62
2017-12-27T02:29:02.150Z,4.63
2017-12-27T02:30:11.125Z,4.59
2017-12-27T02:31:20.223Z,4.66
2017-12-27T02:32:29.045Z,4.59
2017-12-27T02:33:37.874Z,4.54
2017-12-27T02:34:46.703Z,4.59
2017-12-27T02:35:55.526Z,4.54
2017-12-27T02:37:04.352Z,4.45
2017-12-27T02:38:13.181Z,4.45
2017-12-27T02:39:22.007Z,4.52
2017-12-27T02:40:30.832Z,4.44
2017-12-27T02:41:39.803Z,4.44
2017-12-27T02:42:48.631Z,4.55
2017-12-27T02:43:57.502Z,4.41
2017-12-27T02:45:06.328Z,4.45
2017-12-27T02:46:15.156Z,4.42
2017-12-27T02:47:23.985Z,4.45
2017-12-27T02:48:32.811Z,4.47
2017-12-27T02:49:41.912Z,4.41
2017-12-27T02:50:50.740Z,4.47
2017-12-27T02:51:59.566Z,4.52
2017-12-27T02:53:08.538Z,4.54
2017-12-27T02:54:17.365Z,4.51
2017-12-27T02:55:26.187Z,4.51
2017-12-27T02:56:35.017Z,4.59
2017-12-27T02:57:43.881Z,4.42
2017-12-27T02:58:52.810Z,4.44
2017-12-27T03:00:01.636Z,4.45
2017-12-27T03:01:10.461Z,4.42
2017-12-27T03:02:19.285Z,4.44
2017-12-27T03:03:28.110Z,4.44
2017-12-27T03:04:36.983Z,4.5
2017-12-27T03:05:45.807Z,4.42
2017-12-27T03:06:54.635Z,4.51
2017-12-27T03:08:03.458Z,4.45
2017-12-27T03:09:12.283Z,4.44
2017-12-27T03:10:21.108Z,4.44
2017-12-27T03:11:29.932Z,4.45
2017-12-27T03:12:38.756Z,4.41
2017-12-27T03:13:47.579Z,4.41
2017-12-27T03:14:56.403Z,4.42
2017-12-27T03:16:05.277Z,4.4
2017-12-27T03:17:14.106Z,4.41
2017-12-27T03:18:22.927Z,4.41
2017-12-27T03:19:31.752Z,4.4
2017-12-27T03:20:40.577Z,4.42
2017-12-27T03:21:49.502Z,4.27
2017-12-27T03:22:58.601Z,4.29
2017-12-27T03:24:07.424Z,4.42
2017-12-27T03:25:16.251Z,4.36
2017-12-27T03:26:25.073Z,4.34
2017-12-27T03:27:33.997Z,4.32
2017-12-27T03:28:42.822Z,4.27
2017-12-27T03:29:51.920Z,4.29
2017-12-27T03:31:00.745Z,4.33
2017-12-27T03:32:09.568Z,4.34
2017-12-27T03:33:18.392Z,4.26
2017-12-27T03:34:27.217Z,4.3
2017-12-27T03:35:36.038Z,4.26
2017-12-27T03:36:44.864Z,4.3
2017-12-27T03:37:53.687Z,4.33
2017-12-27T03:39:02.613Z,4.4
2017-12-27T03:40:11.437Z,4.34
2017-12-27T03:41:20.265Z,4.33
2017-12-27T03:42:29.089Z,4.33
2017-12-27T03:43:37.912Z,4.32
2017-12-27T03:44:47.035Z,4.3
2017-12-27T03:45:55.861Z,4.27
2017-12-27T03:47:04.688Z,4.29
2017-12-27T03:48:13.788Z,4.36
2017-12-27T03:49:22.611Z,4.3
2017-12-27T03:50:32.185Z,4.33
2017-12-27T03:51:41.010Z,4.26
2017-12-27T03:52:50.114Z,4.29
2017-12-27T03:53:58.938Z,4.29
2017-12-27T03:55:08.035Z,4.32
2017-12-27T03:56:17.111Z,4.27
2017-12-27T03:57:25.935Z,4.32
2017-12-27T03:58:34.760Z,4.27
2017-12-27T03:59:43.585Z,4.23
2017-12-27T04:00:52.410Z,4.29
2017-12-27T04:02:01.236Z,4.33
2017-12-27T04:03:10.334Z,4.32
2017-12-27T04:04:19.160Z,4.33
2017-12-27T04:05:28.258Z,4.33
2017-12-27T04:06:37.082Z,4.34
2017-12-27T04:07:45.904Z,4.37
2017-12-27T04:08:55.005Z,4.34
2017-12-27T04:10:03.829Z,4.33
2017-12-27T04:11:12.653Z,4.34
2017-12-27T04:12:21.476Z,4.33
2017-12-27T04:13:30.451Z,4.34
2017-12-27T04:14:39.276Z,4.32
2017-12-27T04:15:48.096Z,4.33
2017-12-27T04:16:56.921Z,4.29
2017-12-27T04:18:05.744Z,4.3
2017-12-27T04:19:14.569Z,4.4
2017-12-27T04:20:23.393Z,4.29
2017-12-27T04:21:32.221Z,4.36
2017-12-27T04:22:41.044Z,4.42
2017-12-27T04:23:50.142Z,4.41
2017-12-27T04:24:59.392Z,4.4
2017-12-27T04:26:08.214Z,4.34
2017-12-27T04:27:17.041Z,4.4
2017-12-27T04:28:25.864Z,4.34
2017-12-27T04:29:34.689Z,4.34
2017-12-27T04:30:43.813Z,4.36
2017-12-27T04:31:52.641Z,4.41
2017-12-27T04:33:01.465Z,4.47
2017-12-27T04:34:10.290Z,4.45
2017-12-27T04:35:19.115Z,4.45
2017-12-27T04:36:28.239Z,4.45
2017-12-27T04:37:37.065Z,4.44
2017-12-27T04:38:45.889Z,4.5
2017-12-27T04:39:54.719Z,4.45
2017-12-27T04:41:04.364Z,4.44
2017-12-27T04:42:13.288Z,4.5
2017-12-27T04:43:22.114Z,4.55
2017-12-27T04:44:30.938Z,4.45
2017-12-27T04:45:39.767Z,4.52
2017-12-27T04:46:48.586Z,4.54
2017-12-27T04:47:57.461Z,4.54
2017-12-27T04:49:06.286Z,4.6
2017-12-27T04:50:15.112Z,4.59
2017-12-27T04:51:23.935Z,4.63
2017-12-27T04:52:33.032Z,4.66
2017-12-27T04:53:41.857Z,4.62
2017-12-27T04:54:50.678Z,4.67
2017-12-27T04:55:59.505Z,4.62
2017-12-27T04:57:08.327Z,4.7
2017-12-27T04:58:17.153Z,4.69
2017-12-27T04:59:26.027Z,4.73
2017-12-27T05:00:34.851Z,4.8
2017-12-27T05:01:43.679Z,4.75
2017-12-27T05:02:52.778Z,4.75
2017-12-27T05:04:01.606Z,4.82
2017-12-27T05:05:10.528Z,4.8
2017-12-27T05:06:19.353Z,4.75
2017-12-27T05:07:28.179Z,4.72
2017-12-27T05:08:37.004Z,4.84
2017-12-27T05:09:45.834Z,4.85
2017-12-27T05:10:54.956Z,4.82
2017-12-27T05:12:03.779Z,4.89
2017-12-27T05:13:12.604Z,4.84
2017-12-27T05:14:21.433Z,4.88
2017-12-27T05:15:30.532Z,4.86
2017-12-27T05:16:39.414Z,5
2017-12-27T05:17:48.229Z,4.99
2017-12-27T05:18:57.056Z,4.99
2017-12-27T05:20:05.882Z,4.97
2017-12-27T05:21:14.984Z,5
2017-12-27T05:22:23.813Z,4.96
2017-12-27T05:23:32.634Z,4.96
2017-12-27T05:24:41.460Z,4.91
2017-12-27T05:25:50.284Z,5.02
2017-12-27T05:26:59.111Z,5.04
2017-12-27T05:28:07.933Z,4.96
2017-12-27T05:29:16.758Z,4.99
2017-12-27T05:30:25.582Z,4.97
2017-12-27T05:31:34.408Z,5.02
2017-12-27T05:32:43.233Z,5.09
2017-12-27T05:33:52.209Z,4.94
2017-12-27T05:35:01.036Z,5.03
2017-12-27T05:36:09.863Z,5.06
2017-12-27T05:37:18.688Z,4.92
2017-12-27T05:38:27.515Z,4.99
2017-12-27T05:39:36.338Z,4.99
2017-12-27T05:40:45.164Z,5.04
2017-12-27T05:41:53.987Z,4.97
2017-12-27T05:43:02.814Z,5.03
2017-12-27T05:44:11.638Z,5
2017-12-27T05:45:21.038Z,5.02
2017-12-27T05:46:29.863Z,4.99
2017-12-27T05:47:38.690Z,5.02
2017-12-27T05:48:47.514Z,5.02
2017-12-27T05:49:56.341Z,5.06
2017-12-27T05:51:05.315Z,4.92
2017-12-27T05:52:14.142Z,4.97
2017-12-27T05:53:22.966Z,5
2017-12-27T05:54:31.795Z,5.03
2017-12-27T05:55:40.620Z,4.99
2017-12-27T05:56:49.445Z,5.06
2017-12-27T05:57:58.269Z,5
2017-12-27T05:59:07.096Z,5.02
2017-12-27T06:00:16.194Z,4.97
2017-12-27T06:01:25.021Z,5
2017-12-27T06:02:33.848Z,5.04
2017-12-27T06:03:42.672Z,5.03
2017-12-27T06:04:51.498Z,5.02
2017-12-27T06:06:00.323Z,5.09
2017-12-27T06:07:09.147Z,4.96
2017-12-27T06:08:18.022Z,4.99
2017-12-27T06:09:26.848Z,5.06
2017-12-27T06:10:35.674Z,4.99
2017-12-27T06:11:44.498Z,4.96
2017-12-27T06:12:53.326Z,5
2017-12-27T06:14:02.701Z,4.99
2017-12-27T06:15:11.530Z,4.99
2017-12-27T06:16:20.358Z,5.02
2017-12-27T06:17:29.185Z,4.99
2017-12-27T06:18:38.011Z,5.02
2017-12-27T06:19:46.885Z,5.02
2017-12-27T06:20:55.714Z,4.96
2017-12-27T06:22:04.542Z,5.02
2017-12-27T06:23:13.368Z,5.09
2017-12-27T06:24:22.195Z,5.02
2017-12-27T06:25:31.321Z,4.99
2017-12-27T06:26:40.149Z,5.02
2017-12-27T06:27:48.976Z,4.97
2017-12-27T06:28:57.803Z,4.97
2017-12-27T06:30:06.631Z,5.04
2017-12-27T06:31:15.555Z,5
2017-12-27T06:32:24.380Z,4.96
2017-12-27T06:33:33.206Z,4.82
2017-12-27T06:34:42.034Z,4.8
2017-12-27T06:35:50.861Z,4.8
2017-12-27T06:36:59.986Z,4.91
2017-12-27T06:38:08.812Z,4.88
2017-12-27T06:39:18.180Z,4.73
2017-12-27T06:40:27.004Z,4.8
2017-12-27T06:41:35.832Z,4.82
2017-12-27T06:42:44.808Z,4.8
2017-12-27T06:43:53.906Z,4.75
2017-12-27T06:45:02.731Z,4.77
2017-12-27T06:46:11.557Z,4.8
2017-12-27T06:47:20.383Z,4.78
2017-12-27T06:48:29.408Z,4.82
2017-12-27T06:49:38.233Z,4.86
2017-12-27T06:50:47.060Z,4.96
2017-12-27T06:51:55.935Z,5
2017-12-27T06:53:04.763Z,4.96
2017-12-27T06:54:13.737Z,4.88
2017-12-27T06:55:22.565Z,4.96
2017-12-27T06:56:31.388Z,4.96
2017-12-27T06:57:40.488Z,4.91
2017-12-27T06:58:49.316Z,4.97
2017-12-27T06:59:58.141Z,4.91
2017-12-27T07:01:07.242Z,4.92
2017-12-27T07:02:16.066Z,4.91
2017-12-27T07:03:24.890Z,4.92
2017-12-27T07:04:33.716Z,4.92
2017-12-27T07:05:42.593Z,4.96
2017-12-27T07:06:51.416Z,4.92
2017-12-27T07:08:00.244Z,4.94
2017-12-27T07:09:09.072Z,4.92
2017-12-27T07:10:17.898Z,4.91
2017-12-27T07:11:26.875Z,4.92
2017-12-27T07:12:35.701Z,4.89
2017-12-27T07:13:44.530Z,4.88
2017-12-27T07:14:53.354Z,4.94
2017-12-27T07:16:02.181Z,4.8
2017-12-27T07:17:11.258Z,4.94
2017-12-27T07:18:20.085Z,4.92
2017-12-27T07:19:29.185Z,5
2017-12-27T07:20:38.009Z,4.97
2017-12-27T07:21:46.837Z,4.94
2017-12-27T07:22:55.711Z,5.04
2017-12-27T07:24:04.540Z,4.96
2017-12-27T07:25:13.365Z,4.96
2017-12-27T07:26:22.191Z,5.04
2017-12-27T07:27:31.018Z,5.02
2017-12-27T07:28:39.844Z,5.03
2017-12-27T07:29:48.669Z,5.02
2017-12-27T07:30:57.494Z,4.97
2017-12-27T07:32:06.325Z,5
2017-12-27T07:33:15.150Z,5
2017-12-27T07:34:24.278Z,4.94
2017-12-27T07:35:33.104Z,5.1
2017-12-27T07:36:41.930Z,5.07
2017-12-27T07:37:50.755Z,5.09
2017-12-27T07:38:59.588Z,5.09
2017-12-27T07:40:08.457Z,5.07
2017-12-27T07:41:17.282Z,5.07
2017-12-27T07:42:26.107Z,5.04
2017-12-27T07:43:34.932Z,5.13
2017-12-27T07:44:44.039Z,5
2017-12-27T07:45:53.138Z,5.04
2017-12-27T07:47:01.962Z,5.1
2017-12-27T07:48:10.790Z,5.06
2017-12-27T07:49:19.890Z,5.02
2017-12-27T07:50:28.717Z,5.03
2017-12-27T07:51:37.593Z,5.07
2017-12-27T07:52:46.444Z,5.07
2017-12-27T07:53:55.275Z,5.06
2017-12-27T07:55:04.100Z,5.06
2017-12-27T07:56:12.926Z,5.12
2017-12-27T07:57:22.007Z,5.03
2017-12-27T07:58:30.837Z,4.94
2017-12-27T07:59:39.670Z,5.06
2017-12-27T08:00:48.497Z,4.99
2017-12-27T08:01:57.373Z,5
2017-12-27T08:03:06.298Z,5.09
2017-12-27T08:04:15.125Z,5
2017-12-27T08:05:23.952Z,5.04
2017-12-27T08:06:32.777Z,5.06
2017-12-27T08:07:41.604Z,5.04
2017-12-27T08:08:50.431Z,5.02
2017-12-27T08:09:59.257Z,5.03
2017-12-27T08:11:08.085Z,5.04
2017-12-27T08:12:16.910Z,5.09
2017-12-27T08:13:25.736Z,5.09
2017-12-27T08:14:34.560Z,5.07
2017-12-27T08:15:43.388Z,4.96
2017-12-27T08:16:52.217Z,5.1
2017-12-27T08:18:01.040Z,5
2017-12-27T08:19:09.866Z,5.04
2017-12-27T08:20:18.996Z,5.06
2017-12-27T08:21:27.822Z,5.04
2017-12-27T08:22:36.650Z,5
2017-12-27T08:23:45.474Z,5.07
2017-12-27T08:24:54.298Z,5.06
2017-12-27T08:26:03.426Z,5
2017-12-27T08:27:12.306Z,5.02
2017-12-27T08:28:21.132Z,5.02
2017-12-27T08:29:29.960Z,5.06
2017-12-27T08:30:38.832Z,5.02
2017-12-27T08:31:48.240Z,5.1
2017-12-27T08:32:57.064Z,5.13
2017-12-27T08:34:05.890Z,5.1
2017-12-27T08:35:14.718Z,5.13
2017-12-27T08:36:23.544Z,5.15
2017-12-27T08:37:32.370Z,5.13
2017-12-27T08:38:41.298Z,5.17
2017-12-27T08:39:50.123Z,5.25
2017-12-27T08:40:59.223Z,5.22
2017-12-27T08:42:08.053Z,5.21
2017-12-27T08:43:16.932Z,5.2
2017-12-27T08:44:25.757Z,5.22
2017-12-27T08:45:34.584Z,5.2
2017-12-27T08:46:43.410Z,5.35
2017-12-27T08:47:52.236Z,5.38
2017-12-27T08:49:01.213Z,5.31
2017-12-27T08:50:10.039Z,5.35
2017-12-27T08:51:18.866Z,5.28
2017-12-27T08:52:27.692Z,5.31
2017-12-27T08:53:36.520Z,5.36
2017-12-27T08:54:45.397Z,5.45
2017-12-27T08:55:54.274Z,5.38
2017-12-27T08:57:03.102Z,5.35
2017-12-27T08:58:11.933Z,5.48
2017-12-27T08:59:20.754Z,5.4
2017-12-27T09:00:29.578Z,5.4
2017-12-27T09:01:38.408Z,5.42
2017-12-27T09:02:47.234Z,5.42
2017-12-27T09:03:56.068Z,5.43
2017-12-27T09:05:05.050Z,5.45
2017-12-27T09:06:13.869Z,5.49
2017-12-27T09:07:22.695Z,5.51
2017-12-27T09:08:31.524Z,5.42
2017-12-27T09:09:40.352Z,5.48
2017-12-27T09:10:49.179Z,5.46
2017-12-27T09:11:58.007Z,5.45
2017-12-27T09:13:06.833Z,5.6
2017-12-27T09:14:15.661Z,5.57
2017-12-27T09:15:24.508Z,5.53
2017-12-27T09:16:33.336Z,5.65
2017-12-27T09:17:42.442Z,5.64
2017-12-27T09:18:51.269Z,5.65
2017-12-27T09:20:00.099Z,5.61
2017-12-27T09:21:08.926Z,5.64
2017-12-27T09:22:17.752Z,5.64
2017-12-27T09:23:26.582Z,5.57
2017-12-27T09:24:35.419Z,5.63
2017-12-27T09:25:44.251Z,5.61
2017-12-27T09:26:53.080Z,5.65
2017-12-27T09:28:01.905Z,5.67
2017-12-27T09:29:10.733Z,5.76
2017-12-27T09:30:19.562Z,5.65
2017-12-27T09:31:28.388Z,5.79
2017-12-27T09:32:37.217Z,5.79
2017-12-27T09:33:46.045Z,5.85
2017-12-27T09:34:54.874Z,5.85
2017-12-27T09:36:03.701Z,5.74
2017-12-27T09:37:12.531Z,5.82
2017-12-27T09:38:21.360Z,5.82
2017-12-27T09:39:30.184Z,5.83
2017-12-27T09:40:39.012Z,5.93
2017-12-27T09:41:47.844Z,5.93
2017-12-27T09:42:56.666Z,5.94
2017-12-27T09:44:05.545Z,6.03
2017-12-27T09:45:14.323Z,5.93
2017-12-27T09:46:23.236Z,5.97
2017-12-27T09:47:32.063Z,5.99
2017-12-27T09:48:40.940Z,5.96
2017-12-27T09:49:49.768Z,5.9
2017-12-27T09:50:58.594Z,5.96
2017-12-27T09:52:07.423Z,5.96
2017-12-27T09:53:16.251Z,5.93
2017-12-27T09:54:25.459Z,5.94
2017-12-27T09:55:34.287Z,5.86
2017-12-27T09:56:43.112Z,5.97
2017-12-27T09:57:51.940Z,5.97
2017-12-27T09:59:00.766Z,5.96
2017-12-27T10:00:09.847Z,5.97
2017-12-27T10:01:18.677Z,5.99
2017-12-27T10:02:27.504Z,6.04
2017-12-27T10:03:36.333Z,6.09
2017-12-27T10:04:45.173Z,5.99
2017-12-27T10:05:54.150Z,6.14
2017-12-27T10:07:02.977Z,6.11
2017-12-27T10:08:11.803Z,6.12
2017-12-27T10:09:20.636Z,6.09
2017-12-27T10:10:29.464Z,6.14
2017-12-27T10:11:38.445Z,6.17
2017-12-27T10:12:47.274Z,6.14
2017-12-27T10:13:56.102Z,6.09
2017-12-27T10:15:04.932Z,6.12
2017-12-27T10:16:13.757Z,6.09
2017-12-27T10:17:22.648Z,6.15
2017-12-27T10:18:31.470Z,6.11
2017-12-27T10:19:40.573Z,6.08
2017-12-27T10:20:49.401Z,6.08
2017-12-27T10:21:58.229Z,6.12
2017-12-27T10:23:07.333Z,6.08
2017-12-27T10:24:16.163Z,6.12
2017-12-27T10:25:24.990Z,6.14
2017-12-27T10:26:33.817Z,6.17
2017-12-27T10:27:42.646Z,6.17
2017-12-27T10:28:51.825Z,6.04
2017-12-27T10:30:00.656Z,6.15
2017-12-27T10:31:09.485Z,6.15
2017-12-27T10:32:18.312Z,6.28
2017-12-27T10:33:27.141Z,6.25
2017-12-27T10:34:35.969Z,6.14
2017-12-27T10:35:44.797Z,6.25
2017-12-27T10:36:53.624Z,6.3
2017-12-27T10:38:02.453Z,6.27
2017-12-27T10:39:11.281Z,6.34
2017-12-27T10:40:20.259Z,6.36
2017-12-27T10:41:29.091Z,6.34
2017-12-27T10:42:37.919Z,6.34
2017-12-27T10:43:46.771Z,6.44
2017-12-27T10:44:55.575Z,6.37
2017-12-27T10:46:04.827Z,6.27
2017-12-27T10:47:13.660Z,6.37
2017-12-27T10:48:22.483Z,6.38
2017-12-27T10:49:31.312Z,6.41
2017-12-27T10:50:40.137Z,6.4
2017-12-27T10:51:49.639Z,6.37
2017-12-27T10:52:58.739Z,6.51
2017-12-27T10:54:07.842Z,6.38
2017-12-27T10:55:16.668Z,6.44
2017-12-27T10:56:25.493Z,6.38
2017-12-27T10:57:34.623Z,6.37
2017-12-27T10:58:43.449Z,6.41
2017-12-27T10:59:52.277Z,6.44
2017-12-27T11:01:01.106Z,6.51
2017-12-27T11:02:09.965Z,6.54
2017-12-27T11:03:18.804Z,6.58
2017-12-27T11:04:27.635Z,6.62
2017-12-27T11:05:36.464Z,6.62
2017-12-27T11:06:45.357Z,6.61
2017-12-27T11:07:54.185Z,6.76
2017-12-27T11:09:03.216Z,6.71
2017-12-27T11:10:12.044Z,6.66
2017-12-27T11:11:20.872Z,6.81
2017-12-27T11:12:29.973Z,6.79
2017-12-27T11:13:38.802Z,6.89
2017-12-27T11:14:48.031Z,6.79
2017-12-27T11:15:57.135Z,6.87
2017-12-27T11:17:05.973Z,6.88
2017-12-27T11:18:14.801Z,6.84
2017-12-27T11:19:23.679Z,6.87
2017-12-27T11:20:32.634Z,6.92
2017-12-27T11:21:41.440Z,6.85
2017-12-27T11:22:50.270Z,6.92
2017-12-27T11:23:59.099Z,6.91
2017-12-27T11:25:07.927Z,6.98
2017-12-27T11:26:16.760Z,6.89
2017-12-27T11:27:25.868Z,6.91
2017-12-27T11:28:34.706Z,6.89
2017-12-27T11:29:43.547Z,6.88
2017-12-27T11:30:52.382Z,6.91
2017-12-27T11:32:01.411Z,6.84
2017-12-27T11:33:10.247Z,6.88
2017-12-27T11:34:19.076Z,6.85
2017-12-27T11:35:27.903Z,6.88
2017-12-27T11:36:36.734Z,6.89
2017-12-27T11:37:45.711Z,6.91
2017-12-27T11:38:54.541Z,6.92
2017-12-27T11:40:03.370Z,7.03
2017-12-27T11:41:12.241Z,6.89
2017-12-27T11:42:21.935Z,7.03
2017-12-27T11:43:30.862Z,6.88
2017-12-27T11:44:39.690Z,6.99
2017-12-27T11:45:48.520Z,7.02
2017-12-27T11:46:57.346Z,6.98
2017-12-27T11:48:06.176Z,7.07
2017-12-27T11:49:15.158Z,7.05
2017-12-27T11:50:23.989Z,7.07
2017-12-27T11:51:33.094Z,7.1
2017-12-27T11:52:41.923Z,6.99
2017-12-27T11:53:50.751Z,7.06
2017-12-27T11:54:59.682Z,7.02
2017-12-27T11:56:08.512Z,7.06
2017-12-27T11:57:17.616Z,7.05
2017-12-27T11:58:26.446Z,7.05
2017-12-27T11:59:35.275Z,7.05
2017-12-27T12:00:44.206Z,7.07
2017-12-27T12:01:53.036Z,7.03
2017-12-27T12:03:01.864Z,7.05
2017-12-27T12:04:10.693Z,6.99
2017-12-27T12:05:19.524Z,7.03
2017-12-27T12:06:28.510Z,7.05
2017-12-27T12:07:37.688Z,7.05
2017-12-27T12:08:46.559Z,7.06
2017-12-27T12:09:55.386Z,6.99
2017-12-27T12:11:04.489Z,7.02
2017-12-27T12:12:13.478Z,7.07
2017-12-27T12:13:22.538Z,7.05
2017-12-27T12:14:31.366Z,7.07
2017-12-27T12:15:40.196Z,7.12
2017-12-27T12:16:49.024Z,6.99
2017-12-27T12:17:58.006Z,7.06
2017-12-27T12:19:06.836Z,7.05
2017-12-27T12:20:15.665Z,6.99
2017-12-27T12:21:24.493Z,7.05
2017-12-27T12:22:33.320Z,7.15
2017-12-27T12:23:42.347Z,6.99
2017-12-27T12:24:51.175Z,7.05
2017-12-27T12:26:00.006Z,7.02
2017-12-27T12:27:09.109Z,7.05
2017-12-27T12:28:17.940Z,7.06
2017-12-27T12:29:27.139Z,7.03
2017-12-27T12:30:36.242Z,7.06
2017-12-27T12:31:45.071Z,7.07
2017-12-27T12:32:53.897Z,7.06
2017-12-27T12:34:02.725Z,7.05
2017-12-27T12:35:11.606Z,7.06
2017-12-27T12:36:20.436Z,7.13
2017-12-27T12:37:29.272Z,7.06
2017-12-27T12:38:38.099Z,7.15
2017-12-27T12:39:46.926Z,7.17
2017-12-27T12:40:55.756Z,7.13
2017-12-27T12:42:04.584Z,7.13
2017-12-27T12:43:13.414Z,7.2
2017-12-27T12:44:22.240Z,7.12
2017-12-27T12:45:31.069Z,7.23
2017-12-27T12:46:39.949Z,7.25
2017-12-27T12:47:49.051Z,7.2
2017-12-27T12:48:57.881Z,7.32
2017-12-27T12:50:06.714Z,7.28
2017-12-27T12:51:15.543Z,7.16
2017-12-27T12:52:24.474Z,7.28
2017-12-27T12:53:33.301Z,7.21
2017-12-27T12:54:42.130Z,7.31
2017-12-27T12:55:50.961Z,7.23
2017-12-27T12:56:59.795Z,7.28
2017-12-27T12:58:08.718Z,7.32
2017-12-27T12:59:17.551Z,7.34
2017-12-27T13:00:26.383Z,7.28
2017-12-27T13:01:35.488Z,7.43
2017-12-27T13:02:44.321Z,7.3
2017-12-27T13:03:53.151Z,7.34
2017-12-27T13:05:01.980Z,7.31
2017-12-27T13:06:10.809Z,7.35
2017-12-27T13:07:19.640Z,7.3
2017-12-27T13:08:28.471Z,7.46
2017-12-27T13:09:37.549Z,7.5
2017-12-27T13:10:46.376Z,7.39
2017-12-27T13:11:55.204Z,7.43
2017-12-27T13:13:04.032Z,7.37
2017-12-27T13:14:12.862Z,7.49
2017-12-27T13:15:21.789Z,7.48
2017-12-27T13:16:30.617Z,7.43
2017-12-27T13:17:39.446Z,7.43
2017-12-27T13:18:48.273Z,7.35
2017-12-27T13:19:57.104Z,7.43
2017-12-27T13:21:06.081Z,7.46
2017-12-27T13:22:14.908Z,7.43
2017-12-27T13:23:23.735Z,7.55
2017-12-27T13:24:32.566Z,7.52
2017-12-27T13:25:41.664Z,7.45
2017-12-27T13:26:50.491Z,7.48
2017-12-27T13:27:59.320Z,7.45
2017-12-27T13:29:08.145Z,7.46
2017-12-27T13:30:16.974Z,7.49
2017-12-27T13:31:25.803Z,7.45
2017-12-27T13:32:34.632Z,7.45
2017-12-27T13:33:43.459Z,7.5
2017-12-27T13:34:52.288Z,7.48
2017-12-27T13:36:01.117Z,7.45
2017-12-27T13:37:09.942Z,7.55
2017-12-27T13:38:18.772Z,7.5
2017-12-27T13:39:27.603Z,7.61
2017-12-27T13:40:36.435Z,7.48
2017-12-27T13:41:45.263Z,7.49
2017-12-27T13:42:54.090Z,7.46
2017-12-27T13:44:03.018Z,7.52
2017-12-27T13:45:11.844Z,7.43
2017-12-27T13:46:20.671Z,7.52
2017-12-27T13:47:29.498Z,7.46
2017-12-27T13:48:38.324Z,7.43
2017-12-27T13:49:47.460Z,7.43
2017-12-27T13:50:56.618Z,7.46
2017-12-27T13:52:05.446Z,7.45
2017-12-27T13:53:14.591Z,7.35
2017-12-27T13:54:23.420Z,7.48
2017-12-27T13:55:32.397Z,7.46
2017-12-27T13:56:41.229Z,7.49
2017-12-27T13:57:50.060Z,7.53
2017-12-27T13:58:58.887Z,7.46
2017-12-27T14:00:07.992Z,7.49
2017-12-27T14:01:16.821Z,7.46
2017-12-27T14:02:25.649Z,7.45
2017-12-27T14:03:34.477Z,7.42
2017-12-27T14:04:43.303Z,7.4
2017-12-27T14:05:52.133Z,7.46
2017-12-27T14:07:01.058Z,7.42
2017-12-27T14:08:09.886Z,7.4
2017-12-27T14:09:18.713Z,7.37
2017-12-27T14:10:27.539Z,7.37
2017-12-27T14:11:36.368Z,7.42
2017-12-27T14:12:45.297Z,7.48
2017-12-27T14:13:54.125Z,7.42
2017-12-27T14:15:02.952Z,7.34
2017-12-27T14:16:11.780Z,7.42
2017-12-27T14:17:20.606Z,7.42
2017-12-27T14:18:29.586Z,7.4
2017-12-27T14:19:38.416Z,7.34
2017-12-27T14:20:47.241Z,7.39
2017-12-27T14:21:56.344Z,7.31
2017-12-27T14:23:05.172Z,7.37
2017-12-27T14:24:14.149Z,7.46
2017-12-27T14:25:22.980Z,7.48
2017-12-27T14:26:31.811Z,7.37
2017-12-27T14:27:41.181Z,7.43
2017-12-27T14:28:50.010Z,7.34
2017-12-27T14:30:01.121Z,7.43
2017-12-27T14:31:07.968Z,7.45
2017-12-27T14:32:17.074Z,7.34
2017-12-27T14:33:25.896Z,7.34
2017-12-27T14:34:34.725Z,7.46
2017-12-27T14:35:43.705Z,7.45
2017-12-27T14:36:52.531Z,7.45
2017-12-27T14:38:01.359Z,7.4
2017-12-27T14:39:10.190Z,7.42
2017-12-27T14:40:19.017Z,7.34
2017-12-27T14:41:28.105Z,7.31
2017-12-27T14:42:37.207Z,7.31
2017-12-27T14:43:46.032Z,7.3
2017-12-27T14:44:54.861Z,7.31
2017-12-27T14:46:03.688Z,7.43
2017-12-27T14:47:12.566Z,7.34
2017-12-27T14:48:21.391Z,7.3
2017-12-27T14:49:30.218Z,7.45
2017-12-27T14:50:39.047Z,7.4
2017-12-27T14:51:47.877Z,7.34
2017-12-27T14:52:56.854Z,7.34
2017-12-27T14:54:05.683Z,7.34
2017-12-27T14:55:14.512Z,7.31
2017-12-27T14:56:23.340Z,7.31
2017-12-27T14:57:32.169Z,7.3
2017-12-27T14:58:41.097Z,7.3
2017-12-27T14:59:49.925Z,7.32
2017-12-27T15:00:58.753Z,7.32
2017-12-27T15:02:07.581Z,7.32
2017-12-27T15:03:16.409Z,7.3
2017-12-27T15:04:25.389Z,7.3
2017-12-27T15:05:34.217Z,7.31
2017-12-27T15:06:43.043Z,7.32
2017-12-27T15:07:51.870Z,7.32
2017-12-27T15:09:00.697Z,7.28
2017-12-27T15:10:09.580Z,7.34
2017-12-27T15:11:18.405Z,7.3
2017-12-27T15:12:27.230Z,7.3
2017-12-27T15:13:36.058Z,7.31
2017-12-27T15:14:44.885Z,7.25
2017-12-27T15:15:54.014Z,7.21
2017-12-27T15:17:02.848Z,7.32
2017-12-27T15:18:11.670Z,7.27
2017-12-27T15:19:20.499Z,7.32
2017-12-27T15:20:29.374Z,7.34
2017-12-27T15:21:38.556Z,7.34